Time;durP1;ratioP1;P1;durP2;ratioP2;P2;SDS_P1;SDS_P2;PMS_P1;PMS_P2;Temp;Humidity;BMP_temperature;BMP_pressure;BME280_temperature;BME280_humidity;BME280_pressure;Samples;Min_cycle;Max_cycle;Signal;HPM_P1;HPM_P2
2021/03/17 00:06:29;;;;;;;5.95;3.90;;;;;;;;;;4352261;28;20201;-50
2021/03/17 00:08:55;;;;;;;5.55;4.05;;;;;;;;;;4191382;34;20205;-48
2021/03/17 00:11:21;;;;;;;5.40;4.07;;;;;;;;;;4180800;34;20107;-48
2021/03/17 00:13:47;;;;;;;6.43;3.97;;;;;;;;;;4177620;34;20109;-50
2021/03/17 00:16:13;;;;;;;6.45;4.18;;;;;;;;;;4177529;34;20110;-49
2021/03/17 00:18:39;;;;;;;6.87;4.25;;;;;;;;;;4177631;34;20105;-48
2021/03/17 00:21:05;;;;;;;7.60;3.67;;;;;;;;;;4177392;34;20194;-48
2021/03/17 00:23:31;;;;;;;6.95;4.22;;;;;;;;;;4177438;34;20111;-48
2021/03/17 00:25:57;;;;;;;5.70;3.85;;;;;;;;;;4177354;34;20149;-48
2021/03/17 00:28:23;;;;;;;5.43;3.80;;;;;;;;;;4177756;34;20106;-49
2021/03/17 00:30:49;;;;;;;10.02;4.40;;;;;;;;;;4177421;34;20111;-49
2021/03/17 00:33:15;;;;;;;7.12;4.22;;;;;;;;;;4177707;34;20217;-50
2021/03/17 00:35:41;;;;;;;6.40;4.00;;;;;;;;;;4164703;34;20554;-49
2021/03/17 00:38:07;;;;;;;6.60;4.43;;;;;;;;;;4177554;34;20522;-48
2021/03/17 00:40:34;;;;;;;6.43;4.10;;;;;;;;;;4164548;34;20177;-49
2021/03/17 00:43:00;;;;;;;6.00;4.25;;;;;;;;;;4164743;34;20087;-48
2021/03/17 00:45:26;;;;;;;6.37;4.50;;;;;;;;;;4177285;34;20619;-48
2021/03/17 00:47:52;;;;;;;6.65;4.37;;;;;;;;;;4177434;34;20149;-49
2021/03/17 00:50:18;;;;;;;7.37;4.00;;;;;;;;;;4196052;28;20518;-50
2021/03/17 00:52:44;;;;;;;6.18;4.10;;;;;;;;;;4191040;34;20185;-49
2021/03/17 00:55:11;;;;;;;7.18;4.40;;;;;;;;;;4190630;34;20181;-50
2021/03/17 00:57:37;;;;;;;6.47;4.25;;;;;;;;;;4178003;34;20128;-49
2021/03/17 01:00:10;;;;;;;7.10;4.12;;;;;;;;;;4190866;34;20102;-49
2021/03/17 01:02:36;;;;;;;7.72;4.85;;;;;;;;;;4190952;34;20121;-49
2021/03/17 01:05:02;;;;;;;10.40;4.37;;;;;;;;;;4190922;34;20550;-52
2021/03/17 01:07:28;;;;;;;6.97;3.87;;;;;;;;;;4190775;34;20601;-48
2021/03/17 01:09:54;;;;;;;5.47;4.30;;;;;;;;;;4190794;34;20117;-50
2021/03/17 01:12:20;;;;;;;5.40;4.37;;;;;;;;;;4190821;34;20126;-49
2021/03/17 01:14:46;;;;;;;5.50;4.30;;;;;;;;;;4190820;34;20132;-47
2021/03/17 01:17:12;;;;;;;6.12;4.15;;;;;;;;;;4190788;34;20148;-46
2021/03/17 01:19:38;;;;;;;8.60;3.90;;;;;;;;;;4190746;34;20121;-47
2021/03/17 01:22:04;;;;;;;6.15;4.20;;;;;;;;;;4190694;34;20118;-46
2021/03/17 01:24:30;;;;;;;5.95;4.18;;;;;;;;;;4190575;34;20110;-47
2021/03/17 01:26:56;;;;;;;5.72;4.57;;;;;;;;;;4178098;34;20526;-48
2021/03/17 01:29:23;;;;;;;6.05;3.85;;;;;;;;;;4190687;34;20117;-46
2021/03/17 01:31:49;;;;;;;5.28;3.72;;;;;;;;;;4190600;34;20094;-45
2021/03/17 01:34:15;;;;;;;6.28;3.92;;;;;;;;;;4190904;34;20185;-45
2021/03/17 01:36:40;;;;;;;5.97;3.72;;;;;;;;;;4190488;34;20102;-46
2021/03/17 01:39:06;;;;;;;5.43;4.10;;;;;;;;;;4190488;34;20105;-46
2021/03/17 01:41:32;;;;;;;6.40;4.37;;;;;;;;;;4190369;34;20090;-46
2021/03/17 01:43:58;;;;;;;5.90;4.25;;;;;;;;;;4190308;34;20144;-47
2021/03/17 01:46:24;;;;;;;5.50;4.30;;;;;;;;;;4190398;34;20217;-48
2021/03/17 01:48:50;;;;;;;6.90;4.30;;;;;;;;;;4190354;34;20138;-52
2021/03/17 01:51:16;;;;;;;7.85;3.95;;;;;;;;;;4190533;34;20482;-48
2021/03/17 01:53:42;;;;;;;5.60;4.07;;;;;;;;;;4190267;34;20102;-46
2021/03/17 01:56:08;;;;;;;5.87;4.40;;;;;;;;;;4177539;34;20199;-46
2021/03/17 01:58:35;;;;;;;8.30;4.37;;;;;;;;;;4177779;34;20154;-46
2021/03/17 02:01:01;;;;;;;5.35;4.25;;;;;;;;;;4177586;34;20098;-48
2021/03/17 02:03:27;;;;;;;6.35;4.47;;;;;;;;;;4177759;34;20101;-45
2021/03/17 02:05:53;;;;;;;6.78;5.20;;;;;;;;;;4190180;34;20113;-46
2021/03/17 02:08:22;;;;;;;7.60;4.60;;;;;;;;;;4191839;34;20542;-46
2021/03/17 02:10:48;;;;;;;7.90;5.25;;;;;;;;;;4192292;34;20710;-47
2021/03/17 02:13:51;;;;;;;6.00;4.62;;;;;;;;;;4179695;34;20435;-46
2021/03/17 02:16:19;;;;;;;6.45;4.80;;;;;;;;;;4192340;34;20097;-47
2021/03/17 02:19:00;;;;;;;7.82;4.53;;;;;;;;;;4192222;34;20474;-46
2021/03/17 02:22:08;;;;;;;7.07;5.55;;;;;;;;;;4180053;34;20503;-46
2021/03/17 02:24:56;;;;;;;5.90;4.43;;;;;;;;;;4181195;34;20120;-47
2021/03/17 02:27:54;;;;;;;6.55;5.18;;;;;;;;;;4180826;34;20280;-45
2021/03/17 02:30:57;;;;;;;5.05;3.83;;;;;;;;;;4179754;34;20548;-47
2021/03/17 02:33:55;;;;;;;8.45;4.57;;;;;;;;;;4192079;34;20124;-47
2021/03/17 02:36:52;;;;;;;5.97;4.57;;;;;;;;;;4192268;34;20495;-44
2021/03/17 02:39:50;;;;;;;5.05;4.45;;;;;;;;;;4192029;34;20128;-47
2021/03/17 02:42:28;;;;;;;7.87;4.90;;;;;;;;;;4182856;34;20133;-47
2021/03/17 02:45:01;;;;;;;8.30;4.60;;;;;;;;;;4192121;34;20141;-50
2021/03/17 02:47:28;;;;;;;6.65;5.20;;;;;;;;;;4192002;34;20518;-46
2021/03/17 02:49:55;;;;;;;12.45;5.95;;;;;;;;;;4179411;34;20563;-48
2021/03/17 02:52:21;;;;;;;7.20;4.37;;;;;;;;;;4167918;34;20118;-47
2021/03/17 02:54:47;;;;;;;6.15;4.40;;;;;;;;;;4179249;34;20134;-46
2021/03/17 02:57:20;;;;;;;5.50;4.65;;;;;;;;;;4179132;34;20122;-48
2021/03/17 02:59:51;;;;;;;5.53;4.60;;;;;;;;;;4167868;34;20121;-46
2021/03/17 03:02:17;;;;;;;6.75;4.68;;;;;;;;;;4168592;34;20525;-46
2021/03/17 03:04:43;;;;;;;7.80;4.70;;;;;;;;;;4178950;34;20496;-48
2021/03/17 03:07:09;;;;;;;12.10;4.75;;;;;;;;;;4191877;34;20148;-46
2021/03/17 03:09:35;;;;;;;6.53;4.45;;;;;;;;;;4178976;34;20514;-46
2021/03/17 03:12:01;;;;;;;9.00;4.85;;;;;;;;;;4167654;34;20118;-46
2021/03/17 03:14:27;;;;;;;7.47;4.95;;;;;;;;;;4191932;34;20109;-47
2021/03/17 03:16:58;;;;;;;6.65;4.70;;;;;;;;;;4191960;34;20105;-45
2021/03/17 03:19:27;;;;;;;5.75;4.35;;;;;;;;;;4178935;34;20121;-46
2021/03/17 03:21:53;;;;;;;6.35;4.43;;;;;;;;;;4178874;34;20114;-44
2021/03/17 03:24:19;;;;;;;6.97;4.22;;;;;;;;;;4178933;34;20137;-46
2021/03/17 03:26:53;;;;;;;8.40;5.50;;;;;;;;;;4178881;34;20549;-47
2021/03/17 03:29:19;;;;;;;9.05;4.25;;;;;;;;;;4191707;34;20205;-48
2021/03/17 03:31:47;;;;;;;5.93;4.62;;;;;;;;;;4191641;34;20225;-48
2021/03/17 03:34:13;;;;;;;5.35;4.00;;;;;;;;;;4191915;34;20423;-47
2021/03/17 03:36:40;;;;;;;5.50;4.60;;;;;;;;;;4178798;34;20114;-50
2021/03/17 03:39:06;;;;;;;5.57;4.47;;;;;;;;;;4191784;34;20131;-49
2021/03/17 03:41:31;;;;;;;6.72;4.37;;;;;;;;;;4191531;34;20118;-48
2021/03/17 03:43:58;;;;;;;5.82;3.83;;;;;;;;;;4191929;34;20515;-50
2021/03/17 03:46:24;;;;;;;7.50;4.40;;;;;;;;;;4191681;34;20172;-52
2021/03/17 03:48:50;;;;;;;4.95;4.20;;;;;;;;;;4191637;34;20106;-51
2021/03/17 03:51:18;;;;;;;6.28;4.22;;;;;;;;;;4191265;34;20210;-49
2021/03/17 03:54:08;;;;;;;6.97;4.30;;;;;;;;;;4167221;34;20594;-51
2021/03/17 03:57:02;;;;;;;6.82;4.12;;;;;;;;;;4191345;34;20114;-53
2021/03/17 03:59:29;;;;;;;6.30;3.78;;;;;;;;;;4191424;34;20090;-53
2021/03/17 04:01:56;;;;;;;10.98;4.00;;;;;;;;;;4178666;34;20122;-50
2021/03/17 04:04:24;;;;;;;6.35;4.03;;;;;;;;;;4191081;34;20098;-53
2021/03/17 04:06:51;;;;;;;8.85;6.15;;;;;;;;;;4178601;34;20143;-50
2021/03/17 04:09:23;;;;;;;5.25;4.00;;;;;;;;;;4178908;34;20144;-52
2021/03/17 04:11:49;;;;;;;8.15;4.10;;;;;;;;;;4167720;34;20130;-51
2021/03/17 04:14:15;;;;;;;9.63;4.80;;;;;;;;;;4167167;34;20102;-50
2021/03/17 04:16:41;;;;;;;6.75;3.70;;;;;;;;;;4167049;34;20106;-51
2021/03/17 04:19:07;;;;;;;6.65;4.43;;;;;;;;;;4191228;34;20144;-53
2021/03/17 04:21:35;;;;;;;8.20;4.12;;;;;;;;;;4167067;34;20110;-50
2021/03/17 04:24:02;;;;;;;6.03;4.43;;;;;;;;;;4191288;34;20122;-51
2021/03/17 04:26:28;;;;;;;8.48;5.05;;;;;;;;;;4178652;34;20521;-48
2021/03/17 04:28:55;;;;;;;5.65;4.10;;;;;;;;;;4167341;34;20098;-47
2021/03/17 04:31:21;;;;;;;5.22;3.80;;;;;;;;;;4167279;34;20118;-47
2021/03/17 04:33:47;;;;;;;7.15;4.10;;;;;;;;;;4167037;34;20118;-47
2021/03/17 04:36:13;;;;;;;8.65;4.35;;;;;;;;;;4191361;34;20129;-49
2021/03/17 04:38:39;;;;;;;6.00;3.37;;;;;;;;;;4191068;34;20634;-47
2021/03/17 04:41:05;;;;;;;5.15;4.10;;;;;;;;;;4166876;34;20446;-48
2021/03/17 04:43:31;;;;;;;6.70;4.10;;;;;;;;;;4178201;34;20703;-47
2021/03/17 04:46:00;;;;;;;7.85;3.55;;;;;;;;;;4178277;34;20102;-49
2021/03/17 04:48:26;;;;;;;7.07;4.05;;;;;;;;;;4191112;34;20125;-47
2021/03/17 04:50:52;;;;;;;6.45;3.85;;;;;;;;;;4177957;34;20130;-50
2021/03/17 04:53:19;;;;;;;8.90;3.42;;;;;;;;;;4167170;34;20106;-49
2021/03/17 04:55:45;;;;;;;7.20;3.47;;;;;;;;;;4191143;34;20275;-50
2021/03/17 04:58:17;;;;;;;7.00;4.00;;;;;;;;;;4166990;34;20126;-48
2021/03/17 05:00:46;;;;;;;8.18;3.70;;;;;;;;;;4178247;34;20174;-49
2021/03/17 05:03:12;;;;;;;8.32;4.45;;;;;;;;;;4178404;34;20124;-52
2021/03/17 05:05:41;;;;;;;13.80;3.60;;;;;;;;;;4190933;34;20114;-50
2021/03/17 05:08:07;;;;;;;14.63;5.32;;;;;;;;;;4178360;34;20525;-48
2021/03/17 05:10:33;;;;;;;6.50;3.42;;;;;;;;;;4177891;34;20133;-47
2021/03/17 05:12:59;;;;;;;10.63;4.57;;;;;;;;;;4178128;34;20531;-47
2021/03/17 05:15:25;;;;;;;8.90;3.85;;;;;;;;;;4177805;34;20110;-47
2021/03/17 05:17:51;;;;;;;7.18;4.22;;;;;;;;;;4178013;34;20125;-48
2021/03/17 05:20:24;;;;;;;12.93;4.03;;;;;;;;;;4177961;34;20205;-47
2021/03/17 05:22:50;;;;;;;13.10;4.35;;;;;;;;;;4190944;34;20205;-48
2021/03/17 05:25:21;;;;;;;6.93;4.55;;;;;;;;;;4177708;34;20591;-47
2021/03/17 05:28:03;;;;;;;18.62;4.70;;;;;;;;;;4177960;34;20122;-47
2021/03/17 05:30:35;;;;;;;12.13;4.60;;;;;;;;;;4178018;34;20163;-47
2021/03/17 05:33:02;;;;;;;14.13;4.37;;;;;;;;;;4177528;34;20110;-48
2021/03/17 05:35:28;;;;;;;13.32;4.75;;;;;;;;;;4177722;34;20118;-50
2021/03/17 05:37:54;;;;;;;25.20;5.78;;;;;;;;;;4190537;34;20110;-49
2021/03/17 05:40:20;;;;;;;13.30;4.07;;;;;;;;;;4189432;34;20134;-52
2021/03/17 05:42:46;;;;;;;16.83;4.60;;;;;;;;;;4191756;34;20122;-51
2021/03/17 05:45:17;;;;;;;15.63;4.45;;;;;;;;;;4179507;34;20133;-51
2021/03/17 05:47:44;;;;;;;20.42;5.62;;;;;;;;;;4192453;34;20212;-50
2021/03/17 05:50:11;;;;;;;14.90;5.03;;;;;;;;;;4192285;34;20648;-51
2021/03/17 05:52:37;;;;;;;20.45;5.65;;;;;;;;;;4192438;34;20510;-48
2021/03/17 05:55:04;;;;;;;21.25;5.93;;;;;;;;;;4179642;34;20550;-51
2021/03/17 05:57:30;;;;;;;15.25;5.28;;;;;;;;;;4192591;34;20102;-48
2021/03/17 05:59:56;;;;;;;19.87;5.65;;;;;;;;;;4179740;34;20542;-47
2021/03/17 06:02:22;;;;;;;17.48;5.45;;;;;;;;;;4192597;34;20114;-46
2021/03/17 06:07:24;;;;;;;18.67;5.40;;;;;;;;;;4256199;28;20129;-53
2021/03/17 06:09:52;;;;;;;14.77;5.18;;;;;;;;;;4192122;34;20098;-51
2021/03/17 06:12:18;;;;;;;25.92;5.72;;;;;;;;;;4179880;34;20102;-54
2021/03/17 06:14:45;;;;;;;30.10;5.78;;;;;;;;;;4192388;34;20102;-54
2021/03/17 06:17:28;;;;;;;14.82;5.12;;;;;;;;;;4179797;34;21144;-50
2021/03/17 06:22:43;;;;;;;27.13;5.75;;;;;;;;;;4198775;28;20118;-45
2021/03/17 06:25:10;;;;;;;22.50;5.93;;;;;;;;;;4192196;34;20094;-46
2021/03/17 06:27:38;;;;;;;21.35;5.22;;;;;;;;;;4191854;34;20167;-47
2021/03/17 06:30:08;;;;;;;31.67;6.40;;;;;;;;;;4179652;34;20457;-46
2021/03/17 06:32:35;;;;;;;26.45;5.87;;;;;;;;;;4179680;34;20109;-46
2021/03/17 06:35:01;;;;;;;18.62;5.15;;;;;;;;;;4192032;34;20118;-47
2021/03/17 06:37:37;;;;;;;26.83;5.43;;;;;;;;;;4192191;34;20121;-48
2021/03/17 06:40:04;;;;;;;26.87;5.97;;;;;;;;;;4192254;34;20547;-46
2021/03/17 06:42:40;;;;;;;18.98;4.78;;;;;;;;;;4192227;34;20454;-47
2021/03/17 06:45:07;;;;;;;31.58;5.70;;;;;;;;;;4191776;34;20113;-44
2021/03/17 06:47:33;;;;;;;25.08;5.18;;;;;;;;;;4192228;34;20514;-44
2021/03/17 06:49:59;;;;;;;24.42;4.85;;;;;;;;;;4191882;34;20196;-47
2021/03/17 06:52:28;;;;;;;20.75;5.95;;;;;;;;;;4191997;34;20117;-47
2021/03/17 06:55:05;;;;;;;17.98;4.43;;;;;;;;;;4178287;34;20214;-48
2021/03/17 06:57:31;;;;;;;31.98;5.15;;;;;;;;;;4192016;34;20141;-47
2021/03/17 07:00:23;;;;;;;23.55;5.43;;;;;;;;;;4192072;34;20213;-46
2021/03/17 07:02:51;;;;;;;23.92;5.72;;;;;;;;;;4192134;34;20232;-46
2021/03/17 07:05:17;;;;;;;30.55;6.05;;;;;;;;;;4191829;34;20172;-48
2021/03/17 07:07:50;;;;;;;22.48;5.80;;;;;;;;;;4191873;34;20160;-44
2021/03/17 07:10:40;;;;;;;22.10;5.53;;;;;;;;;;4192124;34;20200;-46
2021/03/17 07:13:07;;;;;;;26.37;5.53;;;;;;;;;;4179167;34;20436;-45
2021/03/17 07:15:33;;;;;;;25.62;5.37;;;;;;;;;;4179140;34;20614;-46
2021/03/17 07:18:23;;;;;;;27.27;5.65;;;;;;;;;;4192052;34;20133;-49
2021/03/17 07:20:52;;;;;;;25.30;4.82;;;;;;;;;;4191796;34;20535;-45
2021/03/17 07:23:25;;;;;;;34.40;7.10;;;;;;;;;;4191692;34;20136;-46
2021/03/17 07:26:04;;;;;;;34.85;7.32;;;;;;;;;;4179074;34;20117;-44
2021/03/17 07:28:49;;;;;;;26.10;6.12;;;;;;;;;;4191633;34;20098;-45
2021/03/17 07:31:26;;;;;;;22.95;6.82;;;;;;;;;;4179719;34;20102;-44
2021/03/17 07:33:52;;;;;;;19.40;5.45;;;;;;;;;;4192110;34;20126;-49
2021/03/17 07:36:38;;;;;;;20.15;5.45;;;;;;;;;;4191744;34;20180;-50
2021/03/17 07:39:07;;;;;;;24.55;5.60;;;;;;;;;;4190530;34;20098;-51
2021/03/17 07:41:33;;;;;;;29.00;6.15;;;;;;;;;;4191678;34;20133;-49
2021/03/17 07:43:59;;;;;;;32.40;6.00;;;;;;;;;;4191730;34;20197;-49
2021/03/17 07:46:25;;;;;;;23.75;6.37;;;;;;;;;;4167399;34;20562;-50
2021/03/17 07:48:52;;;;;;;28.95;6.32;;;;;;;;;;4191464;34;20110;-49
2021/03/17 07:51:18;;;;;;;24.40;6.85;;;;;;;;;;4191405;34;20133;-52
2021/03/17 07:53:46;;;;;;;26.73;6.15;;;;;;;;;;4191715;34;20130;-51
2021/03/17 07:56:12;;;;;;;24.65;6.30;;;;;;;;;;4178884;34;20149;-51
2021/03/17 07:58:38;;;;;;;21.02;5.20;;;;;;;;;;4178752;34;20129;-52
2021/03/17 08:01:04;;;;;;;29.17;6.40;;;;;;;;;;4167253;34;20134;-53
2021/03/17 08:03:30;;;;;;;25.35;5.43;;;;;;;;;;4167275;34;20181;-53
2021/03/17 08:05:56;;;;;;;21.23;5.97;;;;;;;;;;4178306;34;20680;-50
2021/03/17 08:08:23;;;;;;;25.60;5.60;;;;;;;;;;4178805;34;20126;-48
2021/03/17 08:10:49;;;;;;;21.70;5.72;;;;;;;;;;4189784;34;20121;-48
2021/03/17 08:13:16;;;;;;;23.67;5.87;;;;;;;;;;4191341;34;20474;-49
2021/03/17 08:15:45;;;;;;;23.42;5.72;;;;;;;;;;4167403;34;20094;-47
2021/03/17 08:18:31;;;;;;;19.48;4.90;;;;;;;;;;4178477;34;20130;-50
2021/03/17 08:20:57;;;;;;;17.70;5.53;;;;;;;;;;4191183;34;20186;-46
2021/03/17 08:23:43;;;;;;;32.58;5.60;;;;;;;;;;4191091;34;20213;-54
2021/03/17 08:26:13;;;;;;;23.15;4.85;;;;;;;;;;4191162;34;20470;-49
2021/03/17 08:28:48;;;;;;;13.80;4.20;;;;;;;;;;4191187;34;20113;-51
2021/03/17 08:31:39;;;;;;;20.23;5.90;;;;;;;;;;4191110;34;20105;-50
2021/03/17 08:34:21;;;;;;;21.85;4.68;;;;;;;;;;4191272;34;20218;-49
2021/03/17 08:36:59;;;;;;;13.20;4.07;;;;;;;;;;4191394;34;20122;-47
2021/03/17 08:39:32;;;;;;;8.63;3.78;;;;;;;;;;4191350;34;20132;-52
2021/03/17 08:42:15;;;;;;;23.10;4.32;;;;;;;;;;4191349;34;20182;-54
2021/03/17 08:44:41;;;;;;;16.67;3.83;;;;;;;;;;4190991;34;20134;-48
2021/03/17 08:47:13;;;;;;;15.07;3.47;;;;;;;;;;4191238;34;20110;-52
2021/03/17 08:49:40;;;;;;;17.58;3.80;;;;;;;;;;4191180;34;20430;-48
2021/03/17 08:52:08;;;;;;;14.27;4.00;;;;;;;;;;4178382;34;20106;-43
2021/03/17 08:54:34;;;;;;;13.48;3.95;;;;;;;;;;4190827;34;20118;-48
2021/03/17 08:57:01;;;;;;;8.32;3.40;;;;;;;;;;4191013;34;20105;-47
2021/03/17 08:59:47;;;;;;;11.73;3.72;;;;;;;;;;4188734;34;20129;-54
2021/03/17 09:02:25;;;;;;;12.90;3.30;;;;;;;;;;4189600;34;20110;-49
2021/03/17 09:04:52;;;;;;;9.40;2.97;;;;;;;;;;4190249;34;20097;-47
2021/03/17 09:07:19;;;;;;;13.40;4.43;;;;;;;;;;4190965;34;20098;-48
2021/03/17 09:09:46;;;;;;;6.47;3.00;;;;;;;;;;4190688;34;20117;-48
2021/03/17 09:12:12;;;;;;;11.70;3.72;;;;;;;;;;4190854;34;20102;-52
2021/03/17 09:14:39;;;;;;;10.10;4.22;;;;;;;;;;4188881;34;20209;-47
2021/03/17 09:17:18;;;;;;;12.75;3.92;;;;;;;;;;4189704;34;20098;-49
2021/03/17 09:20:16;;;;;;;16.92;3.87;;;;;;;;;;4190298;34;20138;-47
2021/03/17 09:22:45;;;;;;;;;;;;;;;;;;4169622;34;20150;-50
2021/03/17 09:25:41;;;;;;;13.02;3.60;;;;;;;;;;4190738;34;20382;-47
2021/03/17 09:28:10;;;;;;;;;;;;;;;;;;4179461;34;20201;-53
2021/03/17 09:30:41;;;;;;;7.40;2.92;;;;;;;;;;4190805;34;19990;-49
2021/03/17 09:33:09;;;;;;;12.20;3.20;;;;;;;;;;4190722;34;20198;-48
2021/03/17 09:35:36;;;;;;;7.20;3.08;;;;;;;;;;4190491;34;20099;-49
2021/03/17 09:38:13;;;;;;;11.45;2.75;;;;;;;;;;4190597;34;20266;-54
2021/03/17 09:40:44;;;;;;;9.27;2.90;;;;;;;;;;4190509;34;20544;-53
2021/03/17 09:43:24;;;;;;;8.30;3.08;;;;;;;;;;4190530;34;20134;-51
2021/03/17 09:45:50;;;;;;;9.25;3.95;;;;;;;;;;4190410;34;20109;-48
2021/03/17 09:48:16;;;;;;;7.90;3.05;;;;;;;;;;4190482;34;20114;-51
2021/03/17 09:50:42;;;;;;;7.45;2.85;;;;;;;;;;4190249;34;20178;-52
2021/03/17 09:53:15;;;;;;;8.32;2.80;;;;;;;;;;4190615;34;20090;-50
2021/03/17 09:55:41;;;;;;;12.55;3.50;;;;;;;;;;4190379;34;20150;-48
2021/03/17 09:58:07;;;;;;;7.65;3.17;;;;;;;;;;4190554;34;20437;-53
2021/03/17 10:00:34;;;;;;;11.73;2.80;;;;;;;;;;4190075;34;20121;-47
2021/03/17 10:03:01;;;;;;;9.48;4.37;;;;;;;;;;4190532;34;20094;-53
2021/03/17 10:05:28;;;;;;;9.63;3.35;;;;;;;;;;4190306;34;20117;-51
2021/03/17 10:07:54;;;;;;;11.00;3.50;;;;;;;;;;4190260;34;20122;-52
2021/03/17 10:10:21;;;;;;;10.15;3.67;;;;;;;;;;4190249;34;20126;-53
2021/03/17 10:12:47;;;;;;;8.13;3.12;;;;;;;;;;4190301;34;20253;-47
2021/03/17 10:15:14;;;;;;;6.95;3.00;;;;;;;;;;4190167;34;20097;-52
2021/03/17 10:17:41;;;;;;;5.80;2.25;;;;;;;;;;4190197;34;20124;-54
2021/03/17 10:20:09;;;;;;;13.62;2.83;;;;;;;;;;4177377;34;20133;-51
2021/03/17 10:22:35;;;;;;;7.53;2.75;;;;;;;;;;4189002;34;20518;-54
2021/03/17 10:25:09;;;;;;;10.95;2.80;;;;;;;;;;4189708;34;20118;-53
2021/03/17 10:27:52;;;;;;;4.85;2.30;;;;;;;;;;4190073;34;20114;-51
2021/03/17 10:30:25;;;;;;;5.00;2.40;;;;;;;;;;4180691;34;20114;-52
2021/03/17 10:32:51;;;;;;;7.97;2.90;;;;;;;;;;4178415;34;20541;-51
2021/03/17 10:35:17;;;;;;;4.07;2.37;;;;;;;;;;4165660;34;20187;-54
2021/03/17 10:37:44;;;;;;;12.32;2.97;;;;;;;;;;4178653;34;20114;-48
2021/03/17 10:40:18;;;;;;;8.88;3.00;;;;;;;;;;4172997;34;20217;-47
2021/03/17 10:42:48;;;;;;;9.57;3.50;;;;;;;;;;4179714;34;20118;-54
2021/03/17 10:45:31;;;;;;;6.40;2.90;;;;;;;;;;4191933;34;20311;-49
2021/03/17 10:47:57;;;;;;;7.32;2.87;;;;;;;;;;4192332;34;20519;-48
2021/03/17 10:50:31;;;;;;;4.97;2.78;;;;;;;;;;4179258;34;20137;-50
2021/03/17 10:52:57;;;;;;;7.35;2.90;;;;;;;;;;4191976;34;20603;-49
2021/03/17 10:55:25;;;;;;;10.38;3.67;;;;;;;;;;4191920;34;20117;-51
2021/03/17 10:57:52;;;;;;;5.50;3.22;;;;;;;;;;4191809;34;20114;-49
2021/03/17 11:00:20;;;;;;;4.05;2.53;;;;;;;;;;4178973;34;20160;-50
2021/03/17 11:02:46;;;;;;;8.90;2.90;;;;;;;;;;4178897;34;20106;-50
2021/03/17 11:05:13;;;;;;;6.80;3.08;;;;;;;;;;4191877;34;20240;-50
2021/03/17 11:07:59;;;;;;;7.47;3.10;;;;;;;;;;4191981;34;20201;-52
2021/03/17 11:10:30;;;;;;;8.75;2.80;;;;;;;;;;4191961;34;20220;-54
2021/03/17 11:12:56;;;;;;;6.97;2.33;;;;;;;;;;4191869;34;20145;-55
2021/03/17 11:15:30;;;;;;;9.77;2.67;;;;;;;;;;4191847;34;20212;-54
2021/03/17 11:17:57;;;;;;;3.45;2.83;;;;;;;;;;4179393;34;20137;-54
2021/03/17 11:20:24;;;;;;;11.20;3.17;;;;;;;;;;4179043;34;20481;-52
2021/03/17 11:22:51;;;;;;;4.97;2.50;;;;;;;;;;4191882;34;20093;-51
2021/03/17 11:25:37;;;;;;;9.55;3.50;;;;;;;;;;4191639;34;20573;-51
2021/03/17 11:28:13;;;;;;;7.10;2.92;;;;;;;;;;4191918;34;20113;-51
2021/03/17 11:30:43;;;;;;;3.87;2.30;;;;;;;;;;4192023;34;20470;-46
2021/03/17 11:33:42;;;;;;;3.17;2.47;;;;;;;;;;4190850;34;20210;-51
2021/03/17 11:36:38;;;;;;;4.65;2.58;;;;;;;;;;4188901;34;20226;-48
2021/03/17 11:39:06;;;;;;;4.43;2.30;;;;;;;;;;4191725;34;20093;-50
2021/03/17 11:41:32;;;;;;;7.12;3.45;;;;;;;;;;4190982;34;20101;-50
2021/03/17 11:43:59;;;;;;;5.25;2.50;;;;;;;;;;4178733;34;20095;-49
2021/03/17 11:46:25;;;;;;;7.37;2.60;;;;;;;;;;4191401;34;20130;-56
2021/03/17 11:48:51;;;;;;;5.10;2.72;;;;;;;;;;4191642;34;20112;-50
2021/03/17 11:51:17;;;;;;;5.18;2.47;;;;;;;;;;4190209;34;20551;-52
2021/03/17 11:53:43;;;;;;;6.32;2.55;;;;;;;;;;4190075;34;20098;-50
2021/03/17 11:56:09;;;;;;;8.15;2.78;;;;;;;;;;4191435;34;20223;-53
2021/03/17 11:58:35;;;;;;;8.40;2.83;;;;;;;;;;4191311;34;20205;-53
2021/03/17 12:01:02;;;;;;;5.80;2.90;;;;;;;;;;4190492;34;20142;-52
2021/03/17 12:03:29;;;;;;;11.00;3.28;;;;;;;;;;4178037;34;20776;-51
2021/03/17 12:05:55;;;;;;;6.93;3.33;;;;;;;;;;4191405;34;20152;-52
2021/03/17 12:08:21;;;;;;;10.93;3.25;;;;;;;;;;4191399;34;20126;-51
2021/03/17 12:10:51;;;;;;;4.12;2.75;;;;;;;;;;4191420;34;20133;-53
2021/03/17 12:13:31;;;;;;;5.10;3.37;;;;;;;;;;4178600;34;20165;-54
2021/03/17 12:15:57;;;;;;;6.40;3.30;;;;;;;;;;4189669;34;20228;-51
2021/03/17 12:18:23;;;;;;;6.55;3.50;;;;;;;;;;4191205;34;20553;-52
2021/03/17 12:20:49;;;;;;;10.30;3.25;;;;;;;;;;4190824;34;20099;-51
2021/03/17 12:23:16;;;;;;;4.95;3.00;;;;;;;;;;4178432;34;20110;-45
2021/03/17 12:25:42;;;;;;;5.82;2.72;;;;;;;;;;4191215;34;20118;-46
2021/03/17 12:28:16;;;;;;;8.95;3.00;;;;;;;;;;4191376;34;20635;-51
2021/03/17 12:30:43;;;;;;;7.47;2.87;;;;;;;;;;4191283;34;20129;-54
2021/03/17 12:33:09;;;;;;;4.32;2.62;;;;;;;;;;4191440;34;20110;-52
2021/03/17 12:35:35;;;;;;;4.15;2.80;;;;;;;;;;4191083;34;20145;-55
2021/03/17 12:38:01;;;;;;;5.20;2.95;;;;;;;;;;4191407;34;20121;-49
2021/03/17 12:40:28;;;;;;;4.80;3.05;;;;;;;;;;4191058;34;20121;-46
2021/03/17 12:42:54;;;;;;;5.43;2.90;;;;;;;;;;4191465;34;20126;-48
2021/03/17 12:45:24;;;;;;;4.60;2.75;;;;;;;;;;4190959;34;20126;-53
2021/03/17 12:47:51;;;;;;;6.07;3.17;;;;;;;;;;4191235;34;20094;-49
2021/03/17 12:50:17;;;;;;;4.30;2.87;;;;;;;;;;4190913;34;20109;-55
2021/03/17 12:52:43;;;;;;;5.18;3.10;;;;;;;;;;4190247;34;20114;-56
2021/03/17 12:55:15;;;;;;;5.00;2.72;;;;;;;;;;4191317;34;20115;-52
2021/03/17 12:57:47;;;;;;;3.67;3.10;;;;;;;;;;4178988;34;20129;-52
2021/03/17 13:00:24;;;;;;;5.65;2.60;;;;;;;;;;4177358;34;20134;-51
2021/03/17 13:02:51;;;;;;;4.80;2.78;;;;;;;;;;4191199;34;20118;-51
2021/03/17 13:05:17;;;;;;;3.83;2.62;;;;;;;;;;4190712;34;20126;-49
2021/03/17 13:07:43;;;;;;;5.85;2.62;;;;;;;;;;4190952;34;20110;-49
2021/03/17 13:10:13;;;;;;;3.60;2.60;;;;;;;;;;4190807;34;20536;-49
2021/03/17 13:12:43;;;;;;;3.12;2.47;;;;;;;;;;4191121;34;20122;-53
2021/03/17 13:15:10;;;;;;;4.12;2.67;;;;;;;;;;4190896;34;20439;-53
2021/03/17 13:17:36;;;;;;;6.90;3.58;;;;;;;;;;4178236;34;20114;-52
2021/03/17 13:20:04;;;;;;;3.30;2.33;;;;;;;;;;4190704;34;20094;-52
2021/03/17 13:22:30;;;;;;;3.17;2.50;;;;;;;;;;4190963;34;20119;-55
2021/03/17 13:24:56;;;;;;;4.45;2.75;;;;;;;;;;4190867;34;20101;-53
2021/03/17 13:27:23;;;;;;;4.55;3.12;;;;;;;;;;4186791;34;20541;-50
2021/03/17 13:29:50;;;;;;;3.67;3.22;;;;;;;;;;4190679;34;20109;-55
2021/03/17 13:32:16;;;;;;;3.62;2.45;;;;;;;;;;4186197;34;20446;-54
2021/03/17 13:34:42;;;;;;;8.15;3.00;;;;;;;;;;4177593;34;20111;-52
2021/03/17 13:37:08;;;;;;;4.32;3.65;;;;;;;;;;4180937;34;20109;-55
2021/03/17 13:39:34;;;;;;;4.15;2.65;;;;;;;;;;4190584;34;20099;-55
2021/03/17 13:42:00;;;;;;;3.95;2.80;;;;;;;;;;4190525;34;20114;-48
2021/03/17 13:44:26;;;;;;;5.18;2.87;;;;;;;;;;4177399;34;20087;-45
2021/03/17 13:46:53;;;;;;;4.57;3.12;;;;;;;;;;4190593;34;20198;-49
2021/03/17 13:49:19;;;;;;;5.20;3.20;;;;;;;;;;4190757;34;20501;-52
2021/03/17 13:51:46;;;;;;;6.15;2.40;;;;;;;;;;4189659;34;20510;-50
2021/03/17 13:54:12;;;;;;;5.82;2.97;;;;;;;;;;4189341;34;20126;-50
2021/03/17 13:56:38;;;;;;;9.20;3.30;;;;;;;;;;4190128;34;20125;-51
2021/03/17 13:59:04;;;;;;;4.75;2.55;;;;;;;;;;4177595;34;20125;-50
2021/03/17 14:01:37;;;;;;;4.45;2.67;;;;;;;;;;4190401;34;20206;-53
2021/03/17 14:04:07;;;;;;;4.07;3.33;;;;;;;;;;4179427;34;20576;-50
2021/03/17 14:06:33;;;;;;;7.05;3.87;;;;;;;;;;4192335;34;20565;-52
2021/03/17 14:08:59;;;;;;;8.70;3.80;;;;;;;;;;4192449;34;20110;-52
2021/03/17 14:11:25;;;;;;;5.35;3.00;;;;;;;;;;4192273;34;20130;-53
2021/03/17 14:13:51;;;;;;;4.18;2.80;;;;;;;;;;4179711;34;20493;-47
2021/03/17 14:16:17;;;;;;;4.60;2.58;;;;;;;;;;4192046;34;20473;-51
2021/03/17 14:18:52;;;;;;;7.80;2.75;;;;;;;;;;4192458;34;20507;-54
2021/03/17 14:21:20;;;;;;;3.50;2.50;;;;;;;;;;4192536;34;20508;-50
2021/03/17 14:24:09;;;;;;;3.42;2.47;;;;;;;;;;4179220;34;20282;-51
2021/03/17 14:26:38;;;;;;;4.47;2.60;;;;;;;;;;4189832;34;20129;-55
2021/03/17 14:29:04;;;;;;;5.03;2.45;;;;;;;;;;4183196;34;20603;-51
2021/03/17 14:31:31;;;;;;;10.68;3.70;;;;;;;;;;4189078;34;20600;-52
2021/03/17 14:33:57;;;;;;;6.80;3.70;;;;;;;;;;4191752;34;20115;-52
2021/03/17 14:36:23;;;;;;;7.25;4.05;;;;;;;;;;4184033;34;20220;-51
2021/03/17 14:38:49;;;;;;;4.37;3.30;;;;;;;;;;4161646;34;20110;-55
2021/03/17 14:41:17;;;;;;;8.00;4.47;;;;;;;;;;4183375;34;20107;-52
2021/03/17 14:43:49;;;;;;;6.50;3.72;;;;;;;;;;4177298;34;20129;-52
2021/03/17 14:46:15;;;;;;;4.50;3.40;;;;;;;;;;4190011;34;20205;-49
2021/03/17 14:48:41;;;;;;;6.78;3.60;;;;;;;;;;4189361;34;20128;-47
2021/03/17 14:51:08;;;;;;;6.72;2.90;;;;;;;;;;4189957;34;20192;-51
2021/03/17 14:53:36;;;;;;;7.25;5.10;;;;;;;;;;4189904;34;20226;-52
2021/03/17 14:56:04;;;;;;;5.28;4.03;;;;;;;;;;4189866;34;20117;-54
2021/03/17 14:58:31;;;;;;;8.45;5.00;;;;;;;;;;4191175;34;20121;-53
2021/03/17 15:00:59;;;;;;;7.75;4.03;;;;;;;;;;4176842;34;20544;-58
2021/03/17 15:03:25;;;;;;;6.68;3.35;;;;;;;;;;4189861;34;20471;-59